createdAt,value
2023-04-26T00:01:31.287Z,101164.69
2023-04-26T00:03:58.300Z,101167.19
2023-04-26T00:06:27.399Z,101169.69
2023-04-26T00:08:54.826Z,101169.22
2023-04-26T00:11:22.049Z,101178.56
2023-04-26T00:13:48.868Z,101169.16
2023-04-26T00:16:16.623Z,101174.44
2023-04-26T00:18:43.483Z,101173.28
2023-04-26T00:21:10.570Z,101167.47
2023-04-26T00:23:37.354Z,101173.75
2023-04-26T00:26:04.565Z,101169.25
2023-04-26T00:28:31.519Z,101170.19
2023-04-26T00:30:58.400Z,101170.34
2023-04-26T00:33:27.909Z,101172.41
2023-04-26T00:35:54.995Z,101160.56
2023-04-26T00:38:21.704Z,101169.88
2023-04-26T00:40:48.456Z,101158.00
2023-04-26T00:43:15.606Z,101163.81
2023-04-26T00:45:42.643Z,101167.22
2023-04-26T00:48:10.896Z,101170.47
2023-04-26T00:50:37.735Z,101166.97
2023-04-26T00:53:04.696Z,101166.63
2023-04-26T00:55:31.699Z,101171.81
2023-04-26T00:57:59.262Z,101166.16
2023-04-26T01:00:26.334Z,101168.09
2023-04-26T01:02:53.406Z,101163.97
2023-04-26T01:05:20.718Z,101171.53
2023-04-26T01:07:47.984Z,101162.13
2023-04-26T01:10:14.749Z,101158.94
2023-04-26T01:12:41.551Z,101176.72
2023-04-26T01:15:10.056Z,101166.47
2023-04-26T01:17:37.949Z,101164.06
2023-04-26T01:20:05.859Z,101161.56
2023-04-26T01:22:34.335Z,101164.91
2023-04-26T01:25:04.399Z,101169.94
2023-04-26T01:27:32.982Z,101150.16
2023-04-26T01:29:59.718Z,101169.88
2023-04-26T01:32:26.559Z,101172.19
2023-04-26T01:34:53.365Z,101165.69
2023-04-26T01:37:20.042Z,101166.69
2023-04-26T01:39:46.898Z,101173.84
2023-04-26T01:42:13.535Z,101171.66
2023-04-26T01:44:40.480Z,101174.78
2023-04-26T01:47:09.286Z,101172.69
2023-04-26T01:49:36.233Z,101164.00
2023-04-26T01:52:04.269Z,101175.59
2023-04-26T01:54:31.271Z,101181.97
2023-04-26T01:57:00.155Z,101178.41
2023-04-26T01:59:27.981Z,101180.94
2023-04-26T02:01:54.722Z,101183.97
2023-04-26T02:04:21.565Z,101185.50
2023-04-26T02:06:48.238Z,101181.97
2023-04-26T02:09:16.523Z,101187.88
2023-04-26T02:11:43.161Z,101183.00
2023-04-26T02:14:09.918Z,101184.56
2023-04-26T02:16:36.815Z,101182.84
2023-04-26T02:19:05.350Z,101187.84
2023-04-26T02:21:32.253Z,101181.63
2023-04-26T02:23:59.206Z,101180.94
2023-04-26T02:26:29.590Z,101181.22
2023-04-26T02:28:56.312Z,101188.75
2023-04-26T02:31:23.372Z,101191.78
2023-04-26T02:33:50.409Z,101182.81
2023-04-26T02:36:17.075Z,101177.63
2023-04-26T02:38:43.899Z,101181.28
2023-04-26T02:41:10.589Z,101176.44
2023-04-26T02:43:37.815Z,101170.53
2023-04-26T02:46:07.900Z,101175.84
2023-04-26T02:48:34.700Z,101164.84
2023-04-26T02:51:01.458Z,101184.56
2023-04-26T02:53:28.466Z,101176.94
2023-04-26T02:55:55.256Z,101174.41
2023-04-26T02:58:22.129Z,101176.94
2023-04-26T03:00:48.873Z,101174.75
2023-04-26T03:03:16.922Z,101168.69
2023-04-26T03:05:46.179Z,101169.78
2023-04-26T03:08:13.193Z,101162.97
2023-04-26T03:10:39.865Z,101177.78
2023-04-26T03:13:07.315Z,101179.69
2023-04-26T03:15:34.221Z,101177.16
2023-04-26T03:18:01.117Z,101178.84
2023-04-26T03:20:27.880Z,101173.09
2023-04-26T03:22:55.239Z,101180.25
2023-04-26T03:25:21.973Z,101181.13
2023-04-26T03:27:48.747Z,101178.41
2023-04-26T03:30:16.054Z,101187.84
2023-04-26T03:32:44.878Z,101185.00
2023-04-26T03:35:12.092Z,101191.88
2023-04-26T03:37:43.056Z,101194.25
2023-04-26T03:40:12.749Z,101202.00
2023-04-26T03:42:39.791Z,101204.25
2023-04-26T03:45:07.351Z,101208.47
2023-04-26T03:47:35.336Z,101211.13
2023-04-26T03:50:02.289Z,101213.44
2023-04-26T03:52:29.797Z,101218.03
2023-04-26T03:54:56.645Z,101207.44
2023-04-26T03:57:23.399Z,101213.22
2023-04-26T03:59:50.684Z,101219.53
2023-04-26T04:02:17.709Z,101218.63
2023-04-26T04:04:44.865Z,101210.66
2023-04-26T04:07:11.875Z,101217.09
2023-04-26T04:09:39.164Z,101217.00
2023-04-26T04:12:06.098Z,101223.66
2023-04-26T04:14:33.204Z,101223.66
2023-04-26T04:16:59.957Z,101226.63
2023-04-26T04:19:27.836Z,101220.31
2023-04-26T04:21:55.513Z,101225.72
2023-04-26T04:24:22.557Z,101228.38
2023-04-26T04:26:49.309Z,101220.81
2023-04-26T04:29:16.111Z,101228.00
2023-04-26T04:31:43.956Z,101227.81
2023-04-26T04:34:10.838Z,101223.47
2023-04-26T04:36:40.729Z,101218.41
2023-04-26T04:39:12.510Z,101224.25
2023-04-26T04:41:40.847Z,101230.38
2023-04-26T04:44:07.798Z,101229.00
2023-04-26T04:46:35.057Z,101230.38
2023-04-26T04:49:01.881Z,101235.53
2023-04-26T04:51:28.551Z,101225.56
2023-04-26T04:53:57.677Z,101233.50
2023-04-26T04:56:26.111Z,101230.56
2023-04-26T04:58:53.603Z,101238.19
2023-04-26T05:01:22.034Z,101237.28
2023-04-26T05:03:53.059Z,101240.91
2023-04-26T05:06:20.304Z,101250.63
2023-04-26T05:08:47.182Z,101250.72
2023-04-26T05:11:14.610Z,101254.34
2023-04-26T05:13:41.580Z,101263.84
2023-04-26T05:16:08.827Z,101260.28
2023-04-26T05:18:36.870Z,101269.66
2023-04-26T05:21:04.515Z,101266.06
2023-04-26T05:23:31.574Z,101268.56
2023-04-26T05:26:02.840Z,101270.44
2023-04-26T05:28:52.808Z,101280.03
2023-04-26T05:31:40.827Z,101281.06
2023-04-26T05:34:13.555Z,101290.56
2023-04-26T05:36:40.883Z,101285.53
2023-04-26T05:39:08.401Z,101291.78
2023-04-26T05:41:35.179Z,101299.88
2023-04-26T05:44:02.048Z,101296.06
2023-04-26T05:46:28.992Z,101301.47
2023-04-26T05:48:55.814Z,101301.91
2023-04-26T05:51:22.889Z,101300.53
2023-04-26T05:53:50.290Z,101299.78
2023-04-26T05:56:17.577Z,101301.75
2023-04-26T05:58:45.184Z,101306.19
2023-04-26T06:01:12.499Z,101310.78
2023-04-26T06:03:39.554Z,101312.63
2023-04-26T06:06:08.035Z,101308.56
2023-04-26T06:08:37.351Z,101312.94
2023-04-26T06:11:04.173Z,101321.56
2023-04-26T06:13:31.226Z,101322.75
2023-04-26T06:15:59.829Z,101328.72
2023-04-26T06:18:26.550Z,101329.75
2023-04-26T06:20:53.734Z,101329.91
2023-04-26T06:23:20.505Z,101339.50
2023-04-26T06:25:47.278Z,101347.44
2023-04-26T06:28:14.412Z,101343.25
2023-04-26T06:30:42.730Z,101344.34
2023-04-26T06:33:09.451Z,101347.00
2023-04-26T06:35:42.636Z,101347.19
2023-04-26T06:38:12.984Z,101358.59
2023-04-26T06:40:39.824Z,101350.06
2023-04-26T06:43:06.585Z,101358.00
2023-04-26T06:45:45.873Z,101352.94
2023-04-26T06:48:13.173Z,101348.78
2023-04-26T06:50:40.355Z,101343.03
2023-04-26T06:53:08.303Z,101344.84
2023-04-26T06:55:35.362Z,101352.66
2023-04-26T06:58:02.472Z,101352.03
2023-04-26T07:00:30.138Z,101354.66
2023-04-26T07:02:57.507Z,101353.00
2023-04-26T07:05:24.386Z,101353.06
2023-04-26T07:07:51.346Z,101360.06
2023-04-26T07:10:18.187Z,101361.13
2023-04-26T07:12:45.224Z,101361.28
2023-04-26T07:15:12.290Z,101358.03
2023-04-26T07:17:39.169Z,101347.06
2023-04-26T07:20:06.512Z,101355.09
2023-04-26T07:22:33.466Z,101356.00
2023-04-26T07:25:00.221Z,101343.16
2023-04-26T07:27:27.083Z,101354.59
2023-04-26T07:29:55.793Z,101360.84
2023-04-26T07:32:22.912Z,101348.84
2023-04-26T07:34:49.739Z,101356.81
2023-04-26T07:37:16.525Z,101350.03
2023-04-26T07:39:43.370Z,101349.28
2023-04-26T07:42:10.226Z,101349.28
2023-04-26T07:44:37.004Z,101356.53
2023-04-26T07:47:03.769Z,101351.50
2023-04-26T07:49:30.537Z,101361.94
2023-04-26T07:52:02.328Z,101363.97
2023-04-26T07:54:29.236Z,101354.47
2023-04-26T07:56:55.977Z,101368.44
2023-04-26T07:59:24.100Z,101358.47
2023-04-26T08:01:50.911Z,101369.81
2023-04-26T08:04:19.323Z,101365.47
2023-04-26T08:06:48.707Z,101367.09
2023-04-26T08:09:15.757Z,101373.28
2023-04-26T08:11:42.542Z,101382.09
2023-04-26T08:14:09.478Z,101383.88
2023-04-26T08:16:36.222Z,101387.44
2023-04-26T08:19:03.652Z,101395.16
2023-04-26T08:21:31.170Z,101396.84
2023-04-26T08:23:57.905Z,101400.28
2023-04-26T08:26:24.921Z,101397.00
2023-04-26T08:28:51.925Z,101393.69
2023-04-26T08:31:18.778Z,101407.59
2023-04-26T08:33:45.567Z,101409.47
2023-04-26T08:36:12.956Z,101404.28
2023-04-26T08:38:39.827Z,101403.47
2023-04-26T08:41:09.112Z,101406.19
2023-04-26T08:43:38.003Z,101402.84
2023-04-26T08:46:09.878Z,101407.19
2023-04-26T08:48:37.993Z,101413.22
2023-04-26T08:51:06.840Z,101412.38
2023-04-26T08:53:36.079Z,101414.13
2023-04-26T08:56:04.715Z,101404.94
2023-04-26T08:58:32.450Z,101407.59
2023-04-26T09:01:01.686Z,101405.06
2023-04-26T09:03:28.802Z,101410.34
2023-04-26T09:05:55.713Z,101411.25
2023-04-26T09:08:22.980Z,101413.06
2023-04-26T09:10:49.681Z,101418.28
2023-04-26T09:13:16.486Z,101414.91
2023-04-26T09:15:43.810Z,101418.31
2023-04-26T09:18:21.748Z,101414.88
2023-04-26T09:21:08.183Z,101414.94
2023-04-26T09:23:35.571Z,101410.72
2023-04-26T09:26:22.814Z,101411.63
2023-04-26T09:28:50.842Z,101414.25
2023-04-26T09:31:42.380Z,101410.91
2023-04-26T09:34:10.741Z,101401.44
2023-04-26T09:36:55.607Z,101404.91
2023-04-26T09:39:37.553Z,101410.91
2023-04-26T09:42:05.580Z,101416.94
2023-04-26T09:44:33.225Z,101404.91
2023-04-26T09:47:07.171Z,101406.69
2023-04-26T09:49:43.471Z,101404.22
2023-04-26T09:52:10.813Z,101398.22
2023-04-26T09:54:43.592Z,101406.03
2023-04-26T09:57:12.268Z,101400.84
2023-04-26T09:59:54.348Z,101408.63
2023-04-26T10:02:24.141Z,101406.91
2023-04-26T10:04:56.201Z,101403.47
2023-04-26T10:07:25.407Z,101412.09
2023-04-26T10:09:52.910Z,101406.91
2023-04-26T10:12:20.479Z,101404.41
2023-04-26T10:14:49.278Z,101399.22
2023-04-26T10:17:18.872Z,101405.31
2023-04-26T10:19:48.362Z,101405.31
2023-04-26T10:22:19.992Z,101406.19
2023-04-26T10:24:48.901Z,101411.41
2023-04-26T10:27:16.342Z,101406.19
2023-04-26T10:29:55.057Z,101405.34
2023-04-26T10:32:23.103Z,101411.41
2023-04-26T10:35:19.461Z,101411.41
2023-04-26T10:38:12.343Z,101416.63
2023-04-26T10:40:40.357Z,101414.00
2023-04-26T10:43:10.120Z,101414.84
2023-04-26T10:45:37.924Z,101418.31
2023-04-26T10:48:18.909Z,101418.34
2023-04-26T10:51:12.976Z,101414.88
2023-04-26T10:53:45.839Z,101413.16
2023-04-26T10:56:27.858Z,101411.41
2023-04-26T11:01:45.511Z,101392.44
2023-04-26T11:04:13.047Z,101396.78
2023-04-26T11:06:51.037Z,101393.31
2023-04-26T11:09:48.163Z,101393.34
2023-04-26T11:12:16.611Z,101398.53
2023-04-26T11:14:44.579Z,101401.09
2023-04-26T11:17:12.512Z,101392.47
2023-04-26T11:19:40.964Z,101394.19
2023-04-26T11:22:08.914Z,101390.72
2023-04-26T11:24:39.293Z,101385.53
2023-04-26T11:27:10.332Z,101381.22
2023-04-26T11:29:37.377Z,101382.13
2023-04-26T11:32:04.949Z,101373.47
2023-04-26T11:34:36.434Z,101378.63
2023-04-26T11:37:04.957Z,101372.56
2023-04-26T11:39:37.973Z,101368.22
2023-04-26T11:42:09.422Z,101373.41
2023-04-26T11:44:37.677Z,101372.53
2023-04-26T11:47:08.260Z,101377.72
2023-04-26T11:49:37.728Z,101372.53
2023-04-26T11:52:06.705Z,101382.00
2023-04-26T11:54:38.041Z,101376.81
2023-04-26T11:57:17.303Z,101381.06
2023-04-26T11:59:45.132Z,101380.22
2023-04-26T12:02:12.494Z,101384.53
2023-04-26T12:04:41.120Z,101382.84
2023-04-26T12:07:08.638Z,101379.38
2023-04-26T12:09:36.740Z,101391.47
2023-04-26T12:12:06.488Z,101390.56
2023-04-26T12:14:34.872Z,101394.91
2023-04-26T12:17:03.600Z,101387.97
2023-04-26T12:19:41.086Z,101381.03
2023-04-26T12:22:09.005Z,101393.97
2023-04-26T12:24:37.448Z,101393.97
2023-04-26T12:27:09.443Z,101383.59
2023-04-26T12:29:36.402Z,101387.94
2023-04-26T12:32:04.290Z,101390.53
2023-04-26T12:34:31.424Z,101382.75
2023-04-26T12:36:58.218Z,101385.41
2023-04-26T12:39:25.200Z,101390.63
2023-04-26T12:41:51.943Z,101384.63
2023-04-26T12:44:21.255Z,101388.03
2023-04-26T12:46:49.446Z,101381.94
2023-04-26T12:49:16.383Z,101385.41
2023-04-26T12:51:43.294Z,101381.97
2023-04-26T12:54:10.106Z,101375.94
2023-04-26T12:56:41.012Z,101374.19
2023-04-26T12:59:07.910Z,101371.63
2023-04-26T13:01:34.727Z,101377.66
2023-04-26T13:04:05.086Z,101379.38
2023-04-26T13:06:32.641Z,101379.34
2023-04-26T13:08:59.555Z,101364.63
2023-04-26T13:11:28.698Z,101368.88
2023-04-26T13:13:55.525Z,101366.28
2023-04-26T13:16:22.342Z,101370.53
2023-04-26T13:18:49.143Z,101364.50
2023-04-26T13:21:15.978Z,101365.34
2023-04-26T13:23:42.934Z,101361.09
2023-04-26T13:26:09.712Z,101363.72
2023-04-26T13:28:36.898Z,101361.91
2023-04-26T13:31:04.230Z,101360.09
2023-04-26T13:33:31.094Z,101360.06
2023-04-26T13:35:57.886Z,101357.47
2023-04-26T13:38:26.729Z,101360.97
2023-04-26T13:40:54.370Z,101361.00
2023-04-26T13:43:21.647Z,101355.81
2023-04-26T13:45:48.554Z,101357.56
2023-04-26T13:48:15.777Z,101347.06
2023-04-26T13:50:42.972Z,101361.72
2023-04-26T13:53:10.097Z,101353.06
2023-04-26T13:55:36.902Z,101351.47
2023-04-26T13:58:03.719Z,101354.97
2023-04-26T14:00:30.608Z,101352.41
2023-04-26T14:02:57.538Z,101348.91
2023-04-26T14:05:24.604Z,101353.25
2023-04-26T14:07:53.573Z,101350.59
2023-04-26T14:10:21.875Z,101346.22
2023-04-26T14:12:48.649Z,101340.13
2023-04-26T14:15:15.529Z,101339.25
2023-04-26T14:17:42.297Z,101341.09
2023-04-26T14:20:10.555Z,101336.81
2023-04-26T14:22:37.522Z,101348.91
2023-04-26T14:25:05.033Z,101344.56
2023-04-26T14:27:31.804Z,101336.72
2023-04-26T14:29:58.664Z,101340.09
2023-04-26T14:32:26.020Z,101329.72
2023-04-26T14:34:54.732Z,101334.91
2023-04-26T14:37:22.845Z,101334.19
2023-04-26T14:39:50.781Z,101332.38
2023-04-26T14:42:17.594Z,101334.09
2023-04-26T14:44:46.435Z,101332.34
2023-04-26T14:47:13.460Z,101335.88
2023-04-26T14:49:40.234Z,101319.34
2023-04-26T14:52:06.940Z,101310.59
2023-04-26T14:54:40.622Z,101314.06
2023-04-26T14:57:07.952Z,101310.69
2023-04-26T14:59:34.911Z,101311.59
2023-04-26T15:02:01.705Z,101312.28
2023-04-26T15:04:28.947Z,101311.41
2023-04-26T15:06:56.963Z,101304.53
2023-04-26T15:09:23.758Z,101310.56
2023-04-26T15:11:50.476Z,101306.19
2023-04-26T15:14:17.198Z,101295.78
2023-04-26T15:16:45.272Z,101298.47
2023-04-26T15:19:12.022Z,101298.47
2023-04-26T15:21:38.774Z,101299.34
2023-04-26T15:24:07.666Z,101302.78
2023-04-26T15:26:34.505Z,101293.28
2023-04-26T15:29:01.917Z,101300.25
2023-04-26T15:31:28.808Z,101288.16
2023-04-26T15:33:56.566Z,101285.53
2023-04-26T15:36:23.382Z,101291.56
2023-04-26T15:38:50.239Z,101292.50
2023-04-26T15:41:17.061Z,101298.59
2023-04-26T15:43:43.773Z,101289.09
2023-04-26T15:46:13.920Z,101292.53
2023-04-26T15:48:40.932Z,101304.66
2023-04-26T15:51:07.756Z,101302.88
2023-04-26T15:53:34.483Z,101306.28
2023-04-26T15:56:01.344Z,101307.13
2023-04-26T15:58:28.071Z,101299.34
2023-04-26T16:00:54.774Z,101291.59
2023-04-26T16:03:22.040Z,101290.75
2023-04-26T16:05:48.986Z,101289.09
2023-04-26T16:08:24.364Z,101286.47
2023-04-26T16:11:00.836Z,101295.22
2023-04-26T16:13:28.596Z,101299.53
2023-04-26T16:15:55.956Z,101294.34
2023-04-26T16:18:22.824Z,101303.88
2023-04-26T16:20:49.854Z,101302.97
2023-04-26T16:23:17.077Z,101309.91
2023-04-26T16:25:44.435Z,101304.72
2023-04-26T16:28:11.931Z,101300.41
2023-04-26T16:30:39.570Z,101298.69
2023-04-26T16:33:10.092Z,101300.50
2023-04-26T16:35:37.109Z,101301.41
2023-04-26T16:38:03.802Z,101301.44
2023-04-26T16:40:30.616Z,101300.56
2023-04-26T16:42:57.325Z,101301.44
2023-04-26T16:45:24.191Z,101292.91
2023-04-26T16:47:51.051Z,101301.56
2023-04-26T16:50:17.876Z,101308.53
2023-04-26T16:52:44.626Z,101309.47
2023-04-26T16:55:11.431Z,101300.84
2023-04-26T16:57:38.305Z,101312.09
2023-04-26T17:00:08.080Z,101313.81
2023-04-26T17:02:34.976Z,101307.78
2023-04-26T17:05:01.915Z,101311.28
2023-04-26T17:07:28.722Z,101314.72
2023-04-26T17:09:55.626Z,101313.84
2023-04-26T17:12:22.716Z,101319.03
2023-04-26T17:14:49.531Z,101327.66
2023-04-26T17:17:16.276Z,101331.06
2023-04-26T17:19:43.218Z,101338.78
2023-04-26T17:22:10.496Z,101341.34
2023-04-26T17:24:37.260Z,101342.16
2023-04-26T17:27:04.538Z,101333.59
2023-04-26T17:29:31.362Z,101336.19
2023-04-26T17:31:58.102Z,101335.34
2023-04-26T17:34:24.786Z,101344.03
2023-04-26T17:36:52.977Z,101339.69
2023-04-26T17:39:19.764Z,101345.72
2023-04-26T17:41:46.487Z,101349.16
2023-04-26T17:44:13.267Z,101351.72
2023-04-26T17:46:39.999Z,101349.97
2023-04-26T17:49:07.918Z,101354.28
2023-04-26T17:51:34.588Z,101363.72
2023-04-26T17:54:01.771Z,101361.09
2023-04-26T17:56:28.501Z,101364.53
2023-04-26T17:58:55.281Z,101350.75
2023-04-26T18:01:22.110Z,101368.00
2023-04-26T18:03:49.303Z,101370.56
2023-04-26T18:06:18.013Z,101359.28
2023-04-26T18:08:45.628Z,101368.72
2023-04-26T18:11:12.393Z,101371.25
2023-04-26T18:13:39.685Z,101382.44
2023-04-26T18:16:06.597Z,101372.91
2023-04-26T18:18:33.444Z,101377.19
2023-04-26T18:21:00.524Z,101378.03
2023-04-26T18:23:27.256Z,101377.16
2023-04-26T18:25:54.040Z,101378.75
2023-04-26T18:28:20.815Z,101386.47
2023-04-26T18:30:47.600Z,101396.69
2023-04-26T18:33:14.381Z,101393.19
2023-04-26T18:35:41.232Z,101391.41
2023-04-26T18:38:07.931Z,101387.91
2023-04-26T18:40:35.844Z,101388.72
2023-04-26T18:43:02.623Z,101404.22
2023-04-26T18:45:29.528Z,101397.25
2023-04-26T18:47:57.535Z,101409.28
2023-04-26T18:50:24.304Z,101411.81
2023-04-26T18:52:51.025Z,101405.69
2023-04-26T18:55:17.929Z,101417.75
2023-04-26T18:57:44.629Z,101411.66
2023-04-26T19:00:13.172Z,101425.44
2023-04-26T19:02:41.162Z,101423.66
2023-04-26T19:05:10.152Z,101427.13
2023-04-26T19:07:37.351Z,101427.03
2023-04-26T19:10:04.698Z,101427.00
2023-04-26T19:12:31.484Z,101420.09
2023-04-26T19:14:58.491Z,101428.66
2023-04-26T19:17:26.377Z,101424.31
2023-04-26T19:19:53.778Z,101432.06
2023-04-26T19:22:20.662Z,101426.88
2023-04-26T19:24:51.258Z,101431.13
2023-04-26T19:27:18.295Z,101431.06
2023-04-26T19:29:45.101Z,101438.72
2023-04-26T19:32:12.128Z,101444.56
2023-04-26T19:34:41.413Z,101449.69
2023-04-26T19:37:08.203Z,101447.03
2023-04-26T19:39:35.254Z,101448.66
2023-04-26T19:42:03.038Z,101443.38
2023-04-26T19:44:31.321Z,101450.34
2023-04-26T19:46:58.470Z,101452.06
2023-04-26T19:49:27.192Z,101454.66
2023-04-26T19:51:55.746Z,101444.28
2023-04-26T19:54:23.274Z,101457.13
2023-04-26T19:56:50.033Z,101455.38
2023-04-26T19:59:16.765Z,101456.91
2023-04-26T20:01:43.591Z,101467.88
2023-04-26T20:04:11.551Z,101473.91
2023-04-26T20:06:38.420Z,101471.25
2023-04-26T20:09:07.153Z,101449.59
2023-04-26T20:11:34.287Z,101471.38
2023-04-26T20:14:01.266Z,101471.28
2023-04-26T20:16:28.690Z,101468.66
2023-04-26T20:18:55.691Z,101461.63
2023-04-26T20:21:22.575Z,101453.84
2023-04-26T20:23:49.353Z,101458.19
2023-04-26T20:26:16.217Z,101457.28
2023-04-26T20:28:43.026Z,101457.91
2023-04-26T20:31:09.894Z,101459.38
2023-04-26T20:33:36.801Z,101466.13
2023-04-26T20:36:06.126Z,101466.81
2023-04-26T20:38:32.948Z,101467.44
2023-04-26T20:41:00.437Z,101462.97
2023-04-26T20:43:27.247Z,101465.44
2023-04-26T20:45:54.009Z,101474.09
2023-04-26T20:48:21.039Z,101475.91
2023-04-26T20:50:47.919Z,101470.81
2023-04-26T20:53:14.590Z,101473.50
2023-04-26T20:55:41.378Z,101482.22
2023-04-26T20:58:08.158Z,101476.78
2023-04-26T21:00:34.903Z,101473.44
2023-04-26T21:03:01.734Z,101469.13
2023-04-26T21:05:28.693Z,101469.84
2023-04-26T21:07:55.552Z,101471.50
2023-04-26T21:10:22.428Z,101470.72
2023-04-26T21:12:49.165Z,101468.13
2023-04-26T21:15:16.206Z,101473.28
2023-04-26T21:17:44.443Z,101472.19
2023-04-26T21:20:11.715Z,101475.47
2023-04-26T21:22:38.422Z,101471.81
2023-04-26T21:25:05.591Z,101479.59
2023-04-26T21:27:32.600Z,101480.09
2023-04-26T21:29:59.412Z,101480.84
2023-04-26T21:32:26.259Z,101480.72
2023-04-26T21:34:53.054Z,101485.94
2023-04-26T21:37:19.819Z,101493.06
2023-04-26T21:39:46.972Z,101477.69
2023-04-26T21:42:13.935Z,101489.84
2023-04-26T21:44:40.856Z,101475.97
2023-04-26T21:47:07.772Z,101478.69
2023-04-26T21:49:34.858Z,101480.28
2023-04-26T21:52:01.595Z,101485.41
2023-04-26T21:54:28.362Z,101480.31
2023-04-26T21:56:55.068Z,101484.94
2023-04-26T21:59:21.795Z,101483.19
2023-04-26T22:01:48.532Z,101483.09
2023-04-26T22:04:15.610Z,101484.75
2023-04-26T22:06:42.351Z,101480.59
2023-04-26T22:09:10.272Z,101479.75
2023-04-26T22:11:37.337Z,101478.94
2023-04-26T22:14:04.047Z,101480.41
2023-04-26T22:16:30.763Z,101478.53
2023-04-26T22:18:57.623Z,101474.94
2023-04-26T22:21:24.377Z,101477.44
2023-04-26T22:23:51.124Z,101489.00
2023-04-26T22:26:17.960Z,101485.31
2023-04-26T22:28:44.706Z,101488.88
2023-04-26T22:31:11.451Z,101482.97
2023-04-26T22:33:38.274Z,101493.31
2023-04-26T22:36:05.655Z,101493.31
2023-04-26T22:38:32.480Z,101490.59
2023-04-26T22:40:59.178Z,101494.59
2023-04-26T22:43:26.089Z,101492.31
2023-04-26T22:45:52.893Z,101487.66
2023-04-26T22:48:19.719Z,101495.50
2023-04-26T22:50:49.894Z,101499.97
2023-04-26T22:53:16.917Z,101495.94
2023-04-26T22:55:43.951Z,101498.50
2023-04-26T22:58:10.995Z,101502.13
2023-04-26T23:00:37.673Z,101512.34
2023-04-26T23:03:04.493Z,101511.09
2023-04-26T23:05:31.310Z,101521.34
2023-04-26T23:07:58.089Z,101523.84
2023-04-26T23:10:25.158Z,101523.00
2023-04-26T23:12:51.930Z,101529.16
2023-04-26T23:15:18.713Z,101517.19
2023-04-26T23:17:45.814Z,101521.34
2023-04-26T23:20:12.850Z,101526.97
2023-04-26T23:22:41.023Z,101521.50
2023-04-26T23:25:08.979Z,101519.19
2023-04-26T23:27:36.828Z,101520.75
2023-04-26T23:30:04.669Z,101528.78
2023-04-26T23:32:31.490Z,101527.34
2023-04-26T23:34:58.272Z,101519.88
2023-04-26T23:37:25.198Z,101509.78
2023-04-26T23:39:52.184Z,101523.19
2023-04-26T23:42:18.895Z,101522.28
2023-04-26T23:44:45.784Z,101524.13
2023-04-26T23:47:12.583Z,101510.34
2023-04-26T23:49:39.266Z,101506.00
2023-04-26T23:52:06.152Z,101505.13
2023-04-26T23:54:33.216Z,101501.75
2023-04-26T23:56:59.980Z,101494.41
2023-04-26T23:59:26.668Z,101499.09
